Nearby METAR Reports

KLNK - Lincoln, Nebraska, USA
Distance from station: WNW 8mi, 13km
Updated: Sun, 15-Jul-2018 8:54pm CDT
Clear
Clear
 Wind from NNE
Wind: NNE 7 mph , 11 km/h
Temperature: 81°F , 27°C
Heat Index: 85°F , 29°C
Dew Point: 70°F , 21°C
Humidity: 70%
Barometer: 30.00 inHg , 1015.9 hPa
Clouds: Clear
Visibility: 10 miles , 16 km
2018/07/16 01:54 KLNK 160154Z 03006KT 10SM CLR 27/21 A3000 RMK AO2 SLP145 T02720206
KAHQ - Wahoo, Nebraska, USA
Distance from station: N 31mi, 49km
Updated: Sun, 15-Jul-2018 9:35pm CDT
Clear
Clear
 Wind from calm
Wind: Calm
Temperature: 77°F , 25°C
Dew Point: 68°F , 20°C
Humidity: 74%
Barometer: 30.00 inHg , 1015.9 hPa
Clouds: Clear
Visibility: 10 miles , 16 km
2018/07/16 02:35 KAHQ 160235Z AUTO 00000KT 10SM CLR 25/20 A3000 RMK AO2 T02490203
 
KBIE - Beatrice Municip, Nebraska, USA
Distance from station: S 36mi, 57km
Updated: Sun, 15-Jul-2018 9:35pm CDT
Clear
Clear
 Wind from calm
Wind: Calm
Temperature: 82°F , 28°C
Heat Index: 89°F , 32°C
Dew Point: 75°F , 24°C
Humidity: 79%
Barometer: 30.01 inHg , 1016.3 hPa
Clouds: Clear
Visibility: 10 miles , 16 km
2018/07/16 02:35 KBIE 160235Z AUTO 00000KT 10SM CLR 28/24 A3001 RMK AO2 T02800239
KMLE - Omaha/Millard, Nebraska, USA
Distance from station: NE 39mi, 63km
Updated: Sun, 15-Jul-2018 9:35pm CDT
Partly Cloudy
Partly Cloudy
 Wind from calm
Wind: Calm
Temperature: 84°F , 29°C
Heat Index: 88°F , 31°C
Dew Point: 70°F , 21°C
Humidity: 62%
Barometer: 29.99 inHg , 1015.6 hPa
Clouds: Partly Cloudy
Visibility: 10 miles , 16 km
Cloud details: Partly Cloudy 6000 ft
Partly Cloudy 7000 ft
2018/07/16 02:35 KMLE 160235Z AUTO 00000KT 10SM SCT060 SCT070 29/21 A2999 RMK AO2 T02850206
 
KPMV - Plattsmouth Muni, Nebraska, USA
Distance from station: ENE 39mi, 63km
Updated: Sun, 15-Jul-2018 9:35pm CDT
Clear
Clear
 Wind from ESE
Wind: ESE 3 mph , 6 km/h
Temperature: 79°F , 26°C
Dew Point: 70°F , 21°C
Humidity: 74%
Barometer: 30.01 inHg , 1016.3 hPa
Clouds: Clear
Visibility: 10 miles , 16 km
2018/07/16 02:35 KPMV 160235Z AUTO 12003KT 10SM CLR 26/21 A3001 RMK AO2 T02620205
KAFK - Nebraska City, Nebraska, USA
Distance from station: ESE 43mi, 69km
Updated: Sun, 15-Jul-2018 9:35pm CDT
Clear
Clear
 Wind from calm
Wind: Calm
Temperature: 81°F , 27°C
Heat Index: 85°F , 29°C
Dew Point: 72°F , 22°C
Humidity: 74%
Barometer: 30.00 inHg , 1015.9 hPa
Clouds: Clear
Visibility: 10 miles , 16 km
2018/07/16 02:35 KAFK 160235Z AUTO 00000KT 10SM CLR 27/22 A3000 RMK AO2 T02680220
 
KOFF - Offutt Afb/Belle, Nebraska, USA
Distance from station: ENE 44mi, 70km
Updated: Sun, 15-Jul-2018 8:56pm CDT
Clear
Clear
 Wind from E
Wind: E 5 mph , 7 km/h
Temperature: 81°F , 27°C
Heat Index: 85°F , 29°C
Dew Point: 70°F , 21°C
Humidity: 70%
Barometer: 29.98 inHg , 1015.2 hPa
Clouds: Clear
Visibility: 10 miles , 16 km
2018/07/16 01:56 KOFF 160156Z AUTO 10004KT 10SM CLR 27/21 A2998 RMK AO2 SLP147 T02680208 $
KFET - Fremont Muni Arp, Nebraska, USA
Distance from station: N 46mi, 74km
Updated: Sun, 15-Jul-2018 9:35pm CDT
Clear
Clear
 Wind from calm
Wind: Calm
Temperature: 84°F , 29°C
Heat Index: 87°F , 31°C
Dew Point: 68°F , 20°C
Humidity: 58%
Barometer: 30.01 inHg , 1016.3 hPa
Clouds: Clear
Visibility: 10 miles , 16 km
2018/07/16 02:35 KFET 160235Z AUTO 00000KT 10SM CLR 29/20 A3001 RMK AO2 T02910202
 
KBTA - Blair Muni, Nebraska, USA
Distance from station: NNE 51mi, 82km
Updated: Sun, 15-Jul-2018 9:35pm CDT
Partly Cloudy
Partly Cloudy
 Wind from calm
Wind: Calm
Temperature: 81°F , 27°C
Heat Index: 85°F , 29°C
Dew Point: 70°F , 21°C
Humidity: 70%
Barometer: 30.01 inHg , 1016.3 hPa
Clouds: Partly Cloudy
Visibility: 10 miles , 16 km
Cloud details: Partly Cloudy 5000 ft
Partly Cloudy 6000 ft
2018/07/16 02:35 KBTA 160235Z AUTO 00000KT 10SM SCT050 SCT060 27/21 A3001 RMK AO2 T02680213
KJYR - York, Nebraska, USA
Distance from station: W 52mi, 84km
Updated: Sun, 15-Jul-2018 9:35pm CDT
Clear
Clear
 Wind from NNE
Wind: NNE 3 mph , 6 km/h
Temperature: 75°F , 24°C
Dew Point: 72°F , 22°C
Humidity: 89%
Barometer: 30.04 inHg , 1017.3 hPa
Clouds: Clear
Visibility: 10 miles , 16 km
2018/07/16 02:35 KJYR 160235Z AUTO 03003KT 10SM CLR 24/22 A3004 RMK AO2
 
KOMA - Omaha/Eppley, Nebraska, USA
Distance from station: NE 53mi, 85km
Updated: Sun, 15-Jul-2018 8:52pm CDT
Mostly Cloudy
Mostly Cloudy
 Wind from E
Wind: E 3 mph , 6 km/h
Temperature: 84°F , 29°C
Heat Index: 88°F , 31°C
Dew Point: 70°F , 21°C
Humidity: 62%
Barometer: 29.98 inHg , 1015.2 hPa
Clouds: Mostly Cloudy
Visibility: 10 miles , 16 km
Cloud details: Partly Cloudy 5500 ft
Partly Cloudy 15000 ft
Mostly Cloudy 25000 ft
2018/07/16 01:52 KOMA 160152Z 08003KT 10SM SCT055 SCT150 BKN250 29/21 A2998 RMK AO2 SLP143 T02890206
KOLU - Columbus Muni, Nebraska, USA
Distance from station: NW 58mi, 93km
Updated: Sun, 15-Jul-2018 8:56pm CDT
Few Clouds
Few Clouds
 
Temperature: 75°F , 24°C
Dew Point: 72°F , 22°C
Humidity: 89%
Barometer: 30.04 inHg , 1017.3 hPa
Clouds: Few Clouds
Visibility: 10 miles , 16 km
Cloud details: Few Clouds 4800 ft
2018/07/16 01:56 KOLU 160156Z AUTO 10SM FEW048 24/22 A3004 RMK AO2 RAE42 SLP162 P0000 T02440222